Nearby METAR Reports

 

KIAG - Niagara Falls, New York, USA
Distance from station: W 12mi, 20km
Updated: 02/18/2018 2:53am
Partly cloudy
Partly cloudy
 Wind from WSW
Wind: WSW 9 mph , 15 km/h
Temperature: 30°F , -1°C
Wind Chill: 22°F , -6°C
Dew Point: 23°F , -5°C
Humidity: 75%
Barometer: 1016.9 hPa
Clouds: Partly cloudy
Visibility: 8 miles , 13 km
Cloud details: Few Clouds 5000 ft
Partly cloudy 6000 ft
2018/02/18 07:53 KIAG 180753Z AUTO 25008KT 8SM FEW050 SCT060 M01/M05 A3003 RMK AO2 SLP185 T10111050
KBUF - Buffalo/Cheektow, New York, USA
Distance from station: S 13mi, 21km
Updated: 02/18/2018 3:31am
Mostly cloudy
Mostly cloudy
 Wind from WSW
Wind: WSW 12 mph , 19 km/h
Temperature: 28°F , -2°C
Wind Chill: 18°F , -8°C
Dew Point: 27°F , -3°C
Humidity: 93%
Barometer: 1017.9 hPa
Clouds: Mostly cloudy
Visibility: 10 miles , 16 km
Cloud details: Partly cloudy 800 ft
Mostly cloudy 2500 ft
Mostly cloudy 5500 ft
2018/02/18 08:31 KBUF 180831Z 24010KT 10SM SCT008 BKN025 BKN055 M02/M03 A3006 RMK AO2 T10221033
 
KROC - Rochester, New York, USA
Distance from station: E 51mi, 82km
Updated: 02/18/2018 2:54am
Mostly cloudy
Mostly cloudy
 Wind from W
Wind: W 5 mph , 7 km/h
Temperature: 27°F , -3°C
Wind Chill: 21°F , -6°C
Dew Point: 27°F , -3°C
Humidity: 100%
Barometer: 1016.9 hPa
Clouds: Mostly cloudy
Visibility: 10 miles , 16 km
Cloud details: Mostly cloudy 7500 ft
Mostly cloudy 8500 ft
Mostly cloudy 11000 ft
2018/02/18 07:54 KROC 180754Z 27004KT 10SM BKN075 BKN085 BKN110 M03/M03 A3003 RMK AO2 SLP180 T10281033
CYSN - St. Catharines A, Ontario, Canada
Distance from station: WNW 25mi, 40km
Updated: 02/17/2018 9:00pm
NOT Current
Overcast
Overcast
 Wind from S
Wind: S 6 mph , 9 km/h
Temperature: 30°F , -1°C
Wind Chill: 24°F , -4°C
Dew Point: 19°F , -7°C
Humidity: 64%
Barometer: 1014.9 hPa
Clouds: Overcast
Visibility: 15 miles , 24 km
Cloud details: Few Clouds 4000 ft
Overcast 7700 ft
2018/02/18 02:00 CYSN 180200Z 18005KT 15SM FEW040 OVC077 M01/M07 A2997 RMK SC2AC6 LAST STFD OBS / NEXT 181200UTC PRESFR SLP155
 
KOLE - Olean, New York, USA
Distance from station: SSE 63mi, 102km
Updated: 02/18/2018 3:15am
Light snow, Overcast
Light snow, Overcast
 Wind from W
Wind: W 7 mph , 11 km/h, Gust: 17 mph , 28 km/h
Temperature: 25°F , -4°C
Wind Chill: 17°F , -8°C
Dew Point: 23°F , -5°C
Humidity: 93%
Barometer: 1015.2 hPa
Summary: Light Snow
Clouds: Overcast
Visibility: 10 miles , 16 km
Cloud details: Overcast 1500 ft
2018/02/18 08:15 KOLE 180815Z AUTO 27006G15KT 10SM -SN OVC015 M04/M05 A2998 RMK AO2
KJHW - Jamestown, New York, USA
Distance from station: SSW 74mi, 119km
Updated: 02/18/2018 2:56am

 
2018/02/18 07:56 KJHW 180756Z AUTO RMK AO2 SNEMM SLPNO FZRANO RVRNO $
 
CWWZ - Port Weller (mar, Ontario, Canada
Distance from station: WNW 28mi, 45km
Updated: 02/18/2018 3:00am

 Wind from WSW
Wind: WSW 8 mph , 13 km/h
Temperature: 30°F , -1°C
Wind Chill: 22°F , -6°C
Dew Point: 27°F , -3°C
Humidity: 86%
2018/02/18 08:00 CWWZ 180800Z AUTO 25007KT M01/M03 RMK AO1 SOG 04 3022 PK WND 27018/0730 SLP177 T10071033
CWPC - Port Colborne(Au, Ontario, Canada
Distance from station: WSW 33mi, 53km
Updated: 02/18/2018 3:00am

 Wind from W
Wind: W 16 mph , 26 km/h
Temperature: 28°F , -2°C
Wind Chill: 16°F , -9°C
Dew Point: 25°F , -4°C
Humidity: 86%
2018/02/18 08:00 CWPC 180800Z AUTO 26014KT M02/M04 RMK AO1 SLP184 T10231037 51025
 
CXVN - Vineland (au8), Ontario, Canada
Distance from station: W 36mi, 58km
Updated: 02/18/2018 3:00am

 Wind from WSW
Wind: WSW 9 mph , 15 km/h
Temperature: 28°F , -2°C
Wind Chill: 19°F , -7°C
Dew Point: 25°F , -4°C
Humidity: 86%
2018/02/18 08:00 CXVN 180800Z AUTO 24008KT M02/M04 RMK AO1 SOG 00 1024 SLP173 T10181043
CYTZ - Toronto Il Vor, Ontario, Canada
Distance from station: NW 50mi, 81km
Updated: 02/18/2018 3:00am
Mostly cloudy
Mostly cloudy
 Wind from W
Wind: W 13 mph , 20 km/h
Temperature: 30°F , -1°C
Wind Chill: 20°F , -7°C
Dew Point: 25°F , -4°C
Humidity: 80%
Barometer: 1016.9 hPa
Clouds: Mostly cloudy
Visibility: 9 miles , 14 km
Cloud details: Partly cloudy 2500 ft
Mostly cloudy 8500 ft
2018/02/18 08:00 CYTZ 180800Z AUTO 26011KT 9SM SCT025 BKN085 M01/M04 A3003 RMK SLP176
 
CXTO - Toronto City, Ontario, Canada
Distance from station: NW 52mi, 84km
Updated: 02/18/2018 3:00am

 
Temperature: 30°F , -1°C
Dew Point: 23°F , -5°C
Humidity: 75%
2018/02/18 08:00 CXTO 180800Z AUTO M01/M05 RMK AO1 SOG 06 3023 SLP170 T10081050
KDKK - Dunkirk, New York, USA
Distance from station: SW 52mi, 84km
Updated: 02/18/2018 2:53am
Overcast
Overcast
 Wind from WSW
Wind: WSW 12 mph , 19 km/h, Gust: 21 mph , 33 km/h
Temperature: 30°F , -1°C
Wind Chill: 20°F , -7°C
Dew Point: 27°F , -3°C
Humidity: 86%
Barometer: 1018.3 hPa
Clouds: Overcast
Visibility: 7 miles , 11 km
Cloud details: Overcast 900 ft
2018/02/18 07:53 KDKK 180753Z AUTO 25010G18KT 7SM OVC009 M01/M03 A3007 RMK AO2 UPB19E21B27E39 CIG 006V013 SLP192 P0000 T10111028
 
CYOO - Oshawa, Ontario, Canada
Distance from station: N 56mi, 90km
Updated: 02/18/2018 3:10am
Light snow, Overcast
Light snow, Overcast
 Wind from W
Wind: W 6 mph , 9 km/h
Temperature: 28°F , -2°C
Wind Chill: 21°F , -6°C
Dew Point: 25°F , -4°C
Humidity: 86%
Barometer: 1016.3 hPa
Summary: Light Snow
Clouds: Overcast
Visibility: 6 miles , 10 km
Cloud details: Overcast 4600 ft
2018/02/18 08:10 CYOO 180810Z AUTO 27005KT 6SM -SN OVC046 M02/M04 A3001 RMK SLP172
CWWB - Burlington Piers, Ontario, Canada
Distance from station: WNW 56mi, 91km
Updated: 02/18/2018 3:00am

 
Temperature: 30°F , -1°C
Dew Point: 25°F , -4°C
Humidity: 80%
2018/02/18 08:00 CWWB 180800Z AUTO M01/M04 RMK AO1 SLP181 T10121043 53026
 
CYYZ - Toronto/Pearson, Ontario, Canada
Distance from station: NW 60mi, 96km
Updated: 02/18/2018 3:00am
Mostly cloudy
Mostly cloudy
 Wind from W
Wind: W 10 mph , 17 km/h
Temperature: 27°F , -3°C
Wind Chill: 18°F , -8°C
Dew Point: 21°F , -6°C
Humidity: 80%
Barometer: 1016.3 hPa
Clouds: Mostly cloudy
Visibility: 15 miles , 24 km
Cloud details: Few Clouds 2000 ft
Mostly cloudy 8000 ft
2018/02/18 08:00 CYYZ 180800Z 26009KT 15SM FEW020 BKN080 M03/M06 A3001 RMK SC2AC3 SLP172
CYKZ - Toronto Buttonvi, Ontario, Canada
Distance from station: NW 62mi, 99km
Updated: 02/18/2018 3:00am
Mostly cloudy
Mostly cloudy
 Wind from W
Wind: W 7 mph , 11 km/h
Temperature: 28°F , -2°C
Wind Chill: 21°F , -6°C
Dew Point: 23°F , -5°C
Humidity: 80%
Barometer: 1015.9 hPa
Clouds: Mostly cloudy
Visibility: 13 miles , 21 km
Cloud details: Few Clouds 1500 ft
Mostly cloudy 2000 ft
Mostly cloudy 5500 ft
2018/02/18 08:00 CYKZ 180800Z 27006KT 230V300 13SM FEW015 BKN020 BKN055 M02/M05 A3000 RMK CU2SC4SC1 SLP170
 
CXHM - Hamilton Rbg Cs, Ontario, Canada
Distance from station: W 62mi, 100km
Updated: 02/18/2018 3:00am

 Wind from SW
Wind: SW 3 mph , 6 km/h
Temperature: 27°F , -3°C
2018/02/18 08:00 CXHM 180800Z AUTO 23003KT M03/ RMK AO1 SLP176 T1028 53024
KDSV - Dansville, New York, USA
Distance from station: SE 62mi, 100km
Updated: 02/18/2018 2:54am
Overcast
Overcast
 Wind from calm
Wind: Calm
Temperature: 28°F , -2°C
Dew Point: 27°F , -3°C
Humidity: 93%
Barometer: 1017.3 hPa
Clouds: Overcast
Visibility: 8 miles , 13 km
Cloud details: Few Clouds 2800 ft
Overcast 3700 ft
2018/02/18 07:54 KDSV 180754Z AUTO 00000KT 8SM FEW028 OVC037 M02/M03 A3004 RMK AO2 SLP189 T10221033
 
CYHM - Hamilton Airport, Ontario, Canada
Distance from station: W 63mi, 101km
Updated: 02/18/2018 3:27am
Light snow, Mostly cloudy
Light snow, Mostly cloudy
 Wind from WSW
Wind: WSW 13 mph , 20 km/h
Temperature: 27°F , -3°C
Wind Chill: 16°F , -9°C
Dew Point: 25°F , -4°C
Humidity: 93%
Barometer: 1017.3 hPa
Summary: Light Snow
Clouds: Mostly cloudy
Visibility: 8 miles , 13 km
Cloud details: Mostly cloudy 1800 ft
Mostly cloudy 4000 ft
2018/02/18 08:27 CYHM 180827Z 24011KT 8SM -SN BKN018 BKN040 M03/M04 A3004 RMK SC6SC1 SLP187
CWNC - Cobourg (mars), Ontario, Canada
Distance from station: NNE 63mi, 102km
Updated: 02/18/2018 3:00am

 Wind from WNW
Wind: WNW 8 mph , 13 km/h
Temperature: 30°F , -1°C
Wind Chill: 22°F , -6°C
Dew Point: 21°F , -6°C
Humidity: 69%
2018/02/18 08:00 CWNC 180800Z AUTO 29007KT M01/M06 RMK AO1 SOG 06 3021 SLP163 T10111055